createdAt,value
2023-03-17T00:01:23.789Z,97.40
2023-03-17T00:03:51.616Z,97.70
2023-03-17T00:06:25.598Z,97.90
2023-03-17T00:08:52.779Z,97.80
2023-03-17T00:11:21.185Z,97.50
2023-03-17T00:13:49.056Z,97.60
2023-03-17T00:16:20.797Z,98.10
2023-03-17T00:18:49.574Z,97.70
2023-03-17T00:21:24.678Z,97.30
2023-03-17T00:23:51.973Z,97.00
2023-03-17T00:26:20.363Z,97.60
2023-03-17T00:28:48.660Z,97.40
2023-03-17T00:31:20.814Z,97.30
2023-03-17T00:33:49.786Z,97.50
2023-03-17T00:36:21.524Z,96.80
2023-03-17T00:38:49.766Z,96.30
2023-03-17T00:41:18.339Z,95.70
2023-03-17T00:43:45.746Z,95.90
2023-03-17T00:46:16.663Z,96.10
2023-03-17T00:48:45.194Z,98.70
2023-03-17T00:51:13.250Z,98.50
2023-03-17T00:53:40.632Z,98.20
2023-03-17T00:56:17.688Z,98.10
2023-03-17T00:58:45.799Z,97.80
2023-03-17T01:01:13.009Z,98.00
2023-03-17T01:03:41.584Z,99.00
2023-03-17T01:06:12.603Z,98.80
2023-03-17T01:08:41.308Z,98.20
2023-03-17T01:11:16.371Z,98.90
2023-03-17T01:13:43.554Z,98.70
2023-03-17T01:16:12.430Z,98.80
2023-03-17T01:18:40.030Z,99.40
2023-03-17T01:21:08.058Z,99.80
2023-03-17T01:23:35.930Z,99.80
2023-03-17T01:26:03.380Z,99.90
2023-03-17T01:28:30.754Z,99.90
2023-03-17T01:30:57.951Z,99.90
2023-03-17T01:33:26.557Z,99.90
2023-03-17T01:35:53.719Z,99.10
2023-03-17T01:38:20.820Z,99.70
2023-03-17T01:40:50.655Z,99.90
2023-03-17T01:43:24.418Z,99.70
2023-03-17T01:46:21.009Z,99.90
2023-03-17T01:49:19.440Z,99.90
2023-03-17T01:52:07.620Z,99.30
2023-03-17T01:54:34.974Z,99.70
2023-03-17T01:57:10.715Z,99.80
2023-03-17T01:59:45.655Z,99.90
2023-03-17T02:02:18.118Z,99.90
2023-03-17T02:04:45.242Z,99.90
2023-03-17T02:07:13.481Z,99.90
2023-03-17T02:09:42.044Z,99.90
2023-03-17T02:12:10.557Z,99.90
2023-03-17T02:14:37.689Z,99.90
2023-03-17T02:17:04.861Z,99.90
2023-03-17T02:19:32.129Z,99.90
2023-03-17T02:22:00.599Z,99.90
2023-03-17T02:24:35.103Z,99.90
2023-03-17T02:27:05.763Z,99.90
2023-03-17T02:29:36.098Z,99.90
2023-03-17T02:32:04.396Z,99.90
2023-03-17T02:34:32.755Z,99.90
2023-03-17T02:37:00.126Z,99.90
2023-03-17T02:39:27.695Z,99.90
2023-03-17T02:41:54.840Z,99.90
2023-03-17T02:44:22.033Z,99.90
2023-03-17T02:46:49.115Z,99.90
2023-03-17T02:49:17.645Z,99.90
2023-03-17T02:51:45.574Z,99.90
2023-03-17T02:54:12.707Z,99.90
2023-03-17T02:56:39.903Z,99.90
2023-03-17T02:59:07.257Z,99.90
2023-03-17T03:01:34.728Z,99.90
2023-03-17T03:04:02.357Z,99.90
2023-03-17T03:06:29.572Z,99.90
2023-03-17T03:08:56.761Z,99.90
2023-03-17T03:11:24.069Z,99.90
2023-03-17T03:13:53.016Z,99.90
2023-03-17T03:16:20.218Z,99.90
2023-03-17T03:18:47.339Z,99.90
2023-03-17T03:21:14.654Z,99.90
2023-03-17T03:23:41.765Z,99.90
2023-03-17T03:26:09.358Z,99.90
2023-03-17T03:28:36.614Z,99.90
2023-03-17T03:31:04.219Z,99.90
2023-03-17T03:33:31.440Z,99.90
2023-03-17T03:35:59.533Z,99.90
2023-03-17T03:38:27.896Z,99.90
2023-03-17T03:40:55.144Z,99.90
2023-03-17T03:43:24.069Z,99.90
2023-03-17T03:45:52.140Z,99.90
2023-03-17T03:48:19.298Z,99.90
2023-03-17T03:50:46.801Z,99.90
2023-03-17T03:53:14.546Z,99.90
2023-03-17T03:55:42.005Z,99.90
2023-03-17T03:58:09.156Z,99.90
2023-03-17T04:00:37.320Z,99.90
2023-03-17T04:03:04.489Z,99.90
2023-03-17T04:05:31.848Z,99.90
2023-03-17T04:07:59.298Z,99.90
2023-03-17T04:10:26.543Z,99.90
2023-03-17T04:12:53.720Z,99.90
2023-03-17T04:15:21.227Z,99.90
2023-03-17T04:17:48.390Z,99.90
2023-03-17T04:20:17.076Z,99.90
2023-03-17T04:22:44.889Z,99.90
2023-03-17T04:25:14.671Z,99.90
2023-03-17T04:27:42.653Z,99.90
2023-03-17T04:30:13.836Z,99.90
2023-03-17T04:32:41.753Z,99.90
2023-03-17T04:35:15.158Z,99.90
2023-03-17T04:37:42.390Z,99.90
2023-03-17T04:40:12.175Z,99.90
2023-03-17T04:42:40.040Z,99.90
2023-03-17T04:45:09.510Z,99.90
2023-03-17T04:47:37.398Z,99.90
2023-03-17T04:50:05.432Z,99.90
2023-03-17T04:52:32.478Z,99.90
2023-03-17T04:54:59.634Z,99.90
2023-03-17T04:57:26.775Z,99.90
2023-03-17T04:59:53.922Z,99.90
2023-03-17T05:02:21.076Z,99.90
2023-03-17T05:04:48.193Z,99.90
2023-03-17T05:07:15.961Z,99.90
2023-03-17T05:09:43.120Z,99.90
2023-03-17T05:12:10.992Z,99.90
2023-03-17T05:14:38.248Z,99.90
2023-03-17T05:17:05.483Z,99.90
2023-03-17T05:19:32.767Z,99.90
2023-03-17T05:21:59.803Z,99.90
2023-03-17T05:24:27.175Z,99.90
2023-03-17T05:26:54.457Z,99.90
2023-03-17T05:29:21.557Z,99.90
2023-03-17T05:31:48.898Z,99.90
2023-03-17T05:34:16.299Z,99.90
2023-03-17T05:36:44.670Z,99.90
2023-03-17T05:39:14.412Z,99.90
2023-03-17T05:41:42.411Z,99.90
2023-03-17T05:44:10.473Z,99.90
2023-03-17T05:46:37.595Z,99.90
2023-03-17T05:49:04.957Z,99.90
2023-03-17T05:51:32.295Z,99.90
2023-03-17T05:53:59.392Z,99.90
2023-03-17T05:56:33.347Z,99.90
2023-03-17T05:59:01.805Z,99.90
2023-03-17T06:01:30.088Z,99.90
2023-03-17T06:03:57.760Z,99.90
2023-03-17T06:06:25.931Z,99.90
2023-03-17T06:08:53.397Z,99.90
2023-03-17T06:11:21.773Z,99.90
2023-03-17T06:13:49.205Z,99.90
2023-03-17T06:16:16.729Z,99.90
2023-03-17T06:18:45.876Z,99.90
2023-03-17T06:21:13.752Z,99.90
2023-03-17T06:23:41.073Z,99.90
2023-03-17T06:26:08.312Z,99.90
2023-03-17T06:28:35.855Z,99.90
2023-03-17T06:31:05.326Z,99.90
2023-03-17T06:33:34.652Z,99.90
2023-03-17T06:36:02.014Z,99.80
2023-03-17T06:38:29.211Z,99.30
2023-03-17T06:40:56.566Z,97.30
2023-03-17T06:43:25.017Z,92.80
2023-03-17T06:45:52.852Z,83.90
2023-03-17T06:48:20.036Z,74.90
2023-03-17T06:50:49.183Z,69.20
2023-03-17T06:53:16.789Z,64.40
2023-03-17T06:55:43.871Z,62.80
2023-03-17T06:58:13.249Z,58.60
2023-03-17T07:00:40.506Z,56.70
2023-03-17T07:03:08.121Z,56.30
2023-03-17T07:05:35.407Z,56.00
2023-03-17T07:08:02.496Z,55.70
2023-03-17T07:10:30.465Z,54.00
2023-03-17T07:12:57.868Z,52.60
2023-03-17T07:15:25.851Z,52.20
2023-03-17T07:17:53.025Z,50.20
2023-03-17T07:20:21.209Z,50.30
2023-03-17T07:22:48.384Z,50.50
2023-03-17T07:25:15.817Z,51.40
2023-03-17T07:27:43.076Z,50.60
2023-03-17T07:30:10.938Z,49.40
2023-03-17T07:32:38.064Z,49.30
2023-03-17T07:35:06.227Z,49.10
2023-03-17T07:37:33.331Z,51.40
2023-03-17T07:40:00.384Z,51.20
2023-03-17T07:42:29.121Z,49.50
2023-03-17T07:44:56.270Z,47.40
2023-03-17T07:47:23.399Z,47.40
2023-03-17T07:49:50.465Z,49.50
2023-03-17T07:52:17.652Z,48.90
2023-03-17T07:54:44.780Z,49.40
2023-03-17T07:57:12.436Z,48.40
2023-03-17T07:59:40.254Z,47.00
2023-03-17T08:02:08.499Z,45.10
2023-03-17T08:04:35.763Z,45.00
2023-03-17T08:07:03.351Z,43.70
2023-03-17T08:09:30.710Z,43.10
2023-03-17T08:11:57.997Z,41.50
2023-03-17T08:14:25.137Z,40.40
2023-03-17T08:16:54.296Z,41.10
2023-03-17T08:19:22.228Z,40.40
2023-03-17T08:21:49.324Z,39.90
2023-03-17T08:24:16.966Z,41.70
2023-03-17T08:26:44.061Z,40.20
2023-03-17T08:29:11.150Z,40.80
2023-03-17T08:31:38.702Z,41.60
2023-03-17T08:34:05.814Z,43.50
2023-03-17T08:36:33.246Z,44.10
2023-03-17T08:39:00.466Z,43.30
2023-03-17T08:41:28.465Z,45.20
2023-03-17T08:43:56.339Z,47.30
2023-03-17T08:46:27.229Z,49.10
2023-03-17T08:48:57.018Z,48.80
2023-03-17T08:51:27.006Z,50.10
2023-03-17T08:53:55.164Z,51.30
2023-03-17T08:56:22.946Z,53.00
2023-03-17T08:58:51.963Z,53.30
2023-03-17T09:01:21.046Z,52.00
2023-03-17T09:03:49.637Z,53.60
2023-03-17T09:06:16.930Z,52.80
2023-03-17T09:08:47.625Z,52.20
2023-03-17T09:11:18.140Z,53.70
2023-03-17T09:13:46.537Z,54.80
2023-03-17T09:16:14.856Z,54.00
2023-03-17T09:18:42.509Z,55.80
2023-03-17T09:21:12.010Z,53.90
2023-03-17T09:23:39.259Z,54.30
2023-03-17T09:26:06.640Z,55.70
2023-03-17T09:28:34.185Z,56.90
2023-03-17T09:31:03.058Z,57.10
2023-03-17T09:33:31.008Z,56.70
2023-03-17T09:35:58.214Z,58.10
2023-03-17T09:38:27.660Z,56.20
2023-03-17T09:41:01.552Z,55.80
2023-03-17T09:43:37.257Z,55.30
2023-03-17T09:46:44.150Z,56.70
2023-03-17T09:49:16.355Z,54.80
2023-03-17T09:51:46.471Z,53.40
2023-03-17T09:54:34.969Z,51.90
2023-03-17T09:57:29.616Z,50.10
2023-03-17T10:00:06.283Z,52.20
2023-03-17T10:02:37.821Z,46.80
2023-03-17T10:05:20.717Z,45.90
2023-03-17T10:08:22.681Z,50.50
2023-03-17T10:10:56.204Z,48.30
2023-03-17T10:13:39.441Z,49.20
2023-03-17T10:16:11.662Z,51.00
2023-03-17T10:18:48.240Z,50.70
2023-03-17T10:21:20.833Z,49.80
2023-03-17T10:23:48.446Z,49.80
2023-03-17T10:26:23.201Z,51.20
2023-03-17T10:28:50.568Z,51.40
2023-03-17T10:31:21.374Z,50.60
2023-03-17T10:33:52.665Z,50.70
2023-03-17T10:36:38.673Z,50.10
2023-03-17T10:39:07.778Z,52.00
2023-03-17T10:41:41.064Z,47.20
2023-03-17T10:44:20.386Z,48.00
2023-03-17T10:46:54.567Z,51.40
2023-03-17T10:49:24.286Z,49.30
2023-03-17T10:51:54.066Z,47.00
2023-03-17T10:54:24.744Z,50.40
2023-03-17T10:57:01.610Z,48.00
2023-03-17T10:59:33.212Z,47.80
2023-03-17T11:02:06.706Z,46.10
2023-03-17T11:04:36.619Z,49.80
2023-03-17T11:07:15.464Z,49.40
2023-03-17T11:09:42.703Z,47.80
2023-03-17T11:12:28.625Z,50.20
2023-03-17T11:15:01.032Z,49.20
2023-03-17T11:17:57.575Z,49.40
2023-03-17T11:20:52.773Z,50.50
2023-03-17T11:23:33.018Z,50.10
2023-03-17T11:26:08.797Z,51.60
2023-03-17T11:28:41.198Z,50.90
2023-03-17T11:31:13.114Z,48.40
2023-03-17T11:34:07.094Z,51.40
2023-03-17T11:36:41.279Z,48.70
2023-03-17T11:39:27.504Z,50.00
2023-03-17T11:42:11.578Z,48.90
2023-03-17T11:44:46.998Z,53.00
2023-03-17T11:47:28.527Z,50.70
2023-03-17T11:50:28.456Z,51.40
2023-03-17T11:52:56.954Z,49.30
2023-03-17T11:55:56.079Z,49.90
2023-03-17T11:58:44.176Z,50.30
2023-03-17T12:01:27.274Z,48.60
2023-03-17T12:04:16.492Z,51.70
2023-03-17T12:06:50.904Z,47.90
2023-03-17T12:09:41.166Z,49.80
2023-03-17T12:12:10.995Z,49.50
2023-03-17T12:14:46.470Z,49.50
2023-03-17T12:17:25.840Z,52.40
2023-03-17T12:20:18.585Z,50.70
2023-03-17T12:23:10.462Z,52.00
2023-03-17T12:25:57.894Z,49.20
2023-03-17T12:28:32.996Z,49.90
2023-03-17T12:31:07.485Z,49.10
2023-03-17T12:33:44.932Z,47.60
2023-03-17T12:36:16.390Z,47.70
2023-03-17T12:38:48.645Z,51.40
2023-03-17T12:41:37.090Z,47.90
2023-03-17T12:44:27.302Z,48.90
2023-03-17T12:47:21.762Z,49.60
2023-03-17T12:49:56.986Z,51.00
2023-03-17T12:52:55.338Z,49.40
2023-03-17T12:55:27.054Z,49.20
2023-03-17T12:58:16.286Z,49.80
2023-03-17T13:01:03.857Z,46.90
2023-03-17T13:03:34.467Z,48.90
2023-03-17T13:06:07.468Z,47.70
2023-03-17T13:08:39.841Z,46.80
2023-03-17T13:11:17.078Z,48.50
2023-03-17T13:14:15.526Z,47.50
2023-03-17T13:16:47.539Z,47.90
2023-03-17T13:19:26.970Z,48.20
2023-03-17T13:22:05.205Z,49.50
2023-03-17T13:24:50.272Z,49.40
2023-03-17T13:27:33.283Z,48.90
2023-03-17T13:30:25.909Z,49.30
2023-03-17T13:32:57.233Z,50.10
2023-03-17T13:35:47.842Z,48.40
2023-03-17T13:38:34.833Z,48.10
2023-03-17T13:41:21.943Z,47.70
2023-03-17T13:44:29.107Z,47.60
2023-03-17T13:47:08.950Z,48.90
2023-03-17T13:49:37.269Z,48.40
2023-03-17T13:52:12.662Z,47.70
2023-03-17T13:54:49.796Z,49.30
2023-03-17T13:57:37.556Z,50.30
2023-03-17T14:00:25.923Z,48.70
2023-03-17T14:03:03.590Z,48.10
2023-03-17T14:05:36.257Z,48.50
2023-03-17T14:08:08.660Z,47.50
2023-03-17T14:10:36.276Z,47.90
2023-03-17T14:13:11.632Z,47.20
2023-03-17T14:15:50.325Z,47.80
2023-03-17T14:18:21.649Z,48.00
2023-03-17T14:20:58.489Z,49.20
2023-03-17T14:23:26.720Z,48.10
2023-03-17T14:25:57.054Z,46.30
2023-03-17T14:28:28.476Z,49.80
2023-03-17T14:31:02.369Z,46.30
2023-03-17T14:33:38.018Z,46.80
2023-03-17T14:36:09.249Z,48.20
2023-03-17T14:38:38.988Z,47.00
2023-03-17T14:41:07.459Z,49.10
2023-03-17T14:43:36.260Z,49.20
2023-03-17T14:46:06.220Z,48.10
2023-03-17T14:48:38.150Z,48.10
2023-03-17T14:51:15.529Z,47.20
2023-03-17T14:53:46.407Z,46.40
2023-03-17T14:56:14.028Z,47.10
2023-03-17T14:58:43.995Z,46.90
2023-03-17T15:01:20.232Z,49.40
2023-03-17T15:03:59.308Z,48.10
2023-03-17T15:06:30.672Z,48.60
2023-03-17T15:09:00.365Z,49.30
2023-03-17T15:11:37.930Z,47.90
2023-03-17T15:14:21.129Z,48.30
2023-03-17T15:16:52.565Z,48.60
2023-03-17T15:19:28.338Z,49.20
2023-03-17T15:21:59.922Z,48.40
2023-03-17T15:24:31.823Z,50.20
2023-03-17T15:27:02.730Z,48.60
2023-03-17T15:29:30.054Z,49.90
2023-03-17T15:32:07.033Z,49.20
2023-03-17T15:34:34.106Z,49.80
2023-03-17T15:37:01.690Z,51.00
2023-03-17T15:39:28.844Z,49.00
2023-03-17T15:41:55.848Z,49.80
2023-03-17T15:44:22.928Z,50.30
2023-03-17T15:46:50.065Z,50.20
2023-03-17T15:49:17.214Z,49.80
2023-03-17T15:51:44.244Z,49.70
2023-03-17T15:54:14.595Z,49.10
2023-03-17T15:56:43.392Z,50.90
2023-03-17T15:59:11.132Z,50.90
2023-03-17T16:01:39.673Z,50.00
2023-03-17T16:04:07.080Z,50.40
2023-03-17T16:06:35.675Z,50.20
2023-03-17T16:09:03.400Z,50.70
2023-03-17T16:11:32.000Z,50.10
2023-03-17T16:14:00.030Z,50.90
2023-03-17T16:16:36.781Z,51.20
2023-03-17T16:19:06.014Z,51.20
2023-03-17T16:21:33.238Z,51.90
2023-03-17T16:24:00.525Z,51.30
2023-03-17T16:26:27.654Z,50.60
2023-03-17T16:28:55.840Z,51.40
2023-03-17T16:31:30.815Z,51.10
2023-03-17T16:33:58.369Z,51.10
2023-03-17T16:36:26.377Z,51.80
2023-03-17T16:38:53.752Z,50.10
2023-03-17T16:41:27.463Z,52.00
2023-03-17T16:44:01.491Z,52.10
2023-03-17T16:46:34.600Z,51.20
2023-03-17T16:49:02.278Z,51.00
2023-03-17T16:51:29.674Z,50.90
2023-03-17T16:53:56.888Z,52.50
2023-03-17T16:56:27.247Z,51.30
2023-03-17T16:58:54.439Z,51.90
2023-03-17T17:01:24.925Z,51.40
2023-03-17T17:03:52.388Z,51.80
2023-03-17T17:06:21.324Z,53.10
2023-03-17T17:08:49.980Z,54.10
2023-03-17T17:11:18.897Z,53.90
2023-03-17T17:13:48.215Z,55.30
2023-03-17T17:16:22.444Z,56.30
2023-03-17T17:18:49.659Z,56.80
2023-03-17T17:21:16.835Z,57.60
2023-03-17T17:23:43.970Z,57.80
2023-03-17T17:26:11.225Z,58.00
2023-03-17T17:28:40.262Z,58.80
2023-03-17T17:31:08.794Z,59.00
2023-03-17T17:33:37.131Z,59.30
2023-03-17T17:36:06.589Z,59.70
2023-03-17T17:38:33.841Z,60.00
2023-03-17T17:41:05.625Z,59.80
2023-03-17T17:43:33.102Z,60.10
2023-03-17T17:46:00.383Z,59.90
2023-03-17T17:48:28.365Z,61.20
2023-03-17T17:50:57.156Z,61.50
2023-03-17T17:53:24.763Z,60.80
2023-03-17T17:55:52.430Z,61.80
2023-03-17T17:58:22.513Z,62.10
2023-03-17T18:00:50.871Z,61.50
2023-03-17T18:03:22.391Z,62.00
2023-03-17T18:05:49.663Z,63.00
2023-03-17T18:08:17.477Z,62.60
2023-03-17T18:10:44.702Z,63.90
2023-03-17T18:13:12.497Z,63.50
2023-03-17T18:15:39.755Z,64.10
2023-03-17T18:18:07.356Z,63.50
2023-03-17T18:20:35.183Z,64.80
2023-03-17T18:23:02.823Z,64.30
2023-03-17T18:25:30.295Z,65.00
2023-03-17T18:27:58.213Z,64.90
2023-03-17T18:30:28.860Z,65.30
2023-03-17T18:33:02.712Z,65.50
2023-03-17T18:35:30.603Z,65.70
2023-03-17T18:37:58.231Z,65.00
2023-03-17T18:40:26.610Z,65.20
2023-03-17T18:42:55.353Z,65.30
2023-03-17T18:45:23.206Z,65.40
2023-03-17T18:47:50.459Z,65.50
2023-03-17T18:50:18.494Z,65.80
2023-03-17T18:52:46.239Z,65.60
2023-03-17T18:55:15.261Z,65.90
2023-03-17T18:57:44.774Z,67.00
2023-03-17T19:00:14.926Z,66.40
2023-03-17T19:02:42.237Z,66.60
2023-03-17T19:05:09.887Z,66.90
2023-03-17T19:07:40.133Z,67.20
2023-03-17T19:10:08.801Z,66.10
2023-03-17T19:12:36.470Z,66.70
2023-03-17T19:15:06.461Z,66.60
2023-03-17T19:17:34.179Z,66.70
2023-03-17T19:20:01.743Z,66.50
2023-03-17T19:22:29.233Z,67.00
2023-03-17T19:24:56.612Z,66.40
2023-03-17T19:27:24.009Z,67.20
2023-03-17T19:29:51.191Z,67.30
2023-03-17T19:32:18.511Z,67.40
2023-03-17T19:34:47.828Z,67.10
2023-03-17T19:37:15.916Z,67.00
2023-03-17T19:39:47.060Z,67.30
2023-03-17T19:42:14.500Z,67.60
2023-03-17T19:44:41.569Z,67.50
2023-03-17T19:47:08.736Z,67.90
2023-03-17T19:49:37.788Z,68.10
2023-03-17T19:52:06.583Z,68.10
2023-03-17T19:54:34.372Z,68.60
2023-03-17T19:57:01.527Z,68.40
2023-03-17T19:59:29.087Z,68.30
2023-03-17T20:01:57.105Z,68.20
2023-03-17T20:04:24.886Z,68.00
2023-03-17T20:06:55.814Z,68.20
2023-03-17T20:09:25.505Z,67.80
2023-03-17T20:11:53.685Z,68.10
2023-03-17T20:14:21.092Z,68.20
2023-03-17T20:16:48.606Z,67.70
2023-03-17T20:19:17.130Z,68.20
2023-03-17T20:21:44.383Z,68.00
2023-03-17T20:24:12.986Z,68.20
2023-03-17T20:26:41.797Z,68.30
2023-03-17T20:29:10.053Z,68.60
2023-03-17T20:31:38.836Z,68.50
2023-03-17T20:34:06.519Z,68.00
2023-03-17T20:36:33.899Z,67.70
2023-03-17T20:39:01.570Z,67.80
2023-03-17T20:41:29.486Z,67.80
2023-03-17T20:43:56.890Z,67.90
2023-03-17T20:46:25.838Z,67.90
2023-03-17T20:48:58.864Z,67.30
2023-03-17T20:51:27.432Z,66.60
2023-03-17T20:53:55.208Z,66.70
2023-03-17T20:56:24.261Z,67.30
2023-03-17T20:58:53.372Z,67.30
2023-03-17T21:01:21.577Z,66.90
2023-03-17T21:03:49.659Z,66.80
2023-03-17T21:06:17.654Z,66.90
2023-03-17T21:08:46.253Z,67.30
2023-03-17T21:11:19.326Z,66.70
2023-03-17T21:13:47.125Z,67.00
2023-03-17T21:16:20.439Z,66.70
2023-03-17T21:18:48.373Z,67.10
2023-03-17T21:21:16.693Z,66.80
2023-03-17T21:23:44.337Z,66.70
2023-03-17T21:26:12.582Z,66.60
2023-03-17T21:28:41.578Z,66.80
2023-03-17T21:31:10.020Z,67.10
2023-03-17T21:33:37.386Z,67.30
2023-03-17T21:36:05.949Z,66.90
2023-03-17T21:38:33.267Z,67.40
2023-03-17T21:41:21.310Z,67.70
2023-03-17T21:43:48.437Z,68.00
2023-03-17T21:46:15.545Z,68.20
2023-03-17T21:48:44.033Z,68.60
2023-03-17T21:51:11.796Z,68.80
2023-03-17T21:53:39.386Z,69.10
2023-03-17T21:56:06.866Z,69.10
2023-03-17T21:58:34.447Z,69.90
2023-03-17T22:01:01.629Z,70.20
2023-03-17T22:03:29.360Z,70.80
2023-03-17T22:05:56.838Z,70.90
2023-03-17T22:08:24.274Z,71.10
2023-03-17T22:10:51.946Z,71.20
2023-03-17T22:13:19.314Z,71.60
2023-03-17T22:15:46.343Z,71.60
2023-03-17T22:18:13.698Z,71.70
2023-03-17T22:20:41.376Z,72.80
2023-03-17T22:23:08.447Z,72.50
2023-03-17T22:25:36.251Z,72.40
2023-03-17T22:28:03.642Z,72.80
2023-03-17T22:30:31.688Z,73.00
2023-03-17T22:32:59.233Z,73.10
2023-03-17T22:35:27.338Z,73.20
2023-03-17T22:37:54.434Z,73.50
2023-03-17T22:40:21.714Z,73.80
2023-03-17T22:42:48.964Z,74.10
2023-03-17T22:45:16.592Z,74.40
2023-03-17T22:47:43.732Z,75.90
2023-03-17T22:50:11.922Z,76.20
2023-03-17T22:52:39.190Z,76.70
2023-03-17T22:55:07.757Z,76.80
2023-03-17T22:57:35.923Z,77.20
2023-03-17T23:00:08.858Z,77.60
2023-03-17T23:02:36.124Z,77.70
2023-03-17T23:05:03.395Z,77.70
2023-03-17T23:07:35.570Z,78.30
2023-03-17T23:10:10.042Z,78.40
2023-03-17T23:12:38.331Z,79.30
2023-03-17T23:15:06.823Z,79.60
2023-03-17T23:17:34.003Z,80.50
2023-03-17T23:20:01.211Z,80.40
2023-03-17T23:22:28.278Z,80.90
2023-03-17T23:24:55.357Z,82.00
2023-03-17T23:27:22.807Z,82.50
2023-03-17T23:29:50.138Z,82.70
2023-03-17T23:32:17.268Z,83.10
2023-03-17T23:34:44.908Z,83.30
2023-03-17T23:37:12.270Z,84.30
2023-03-17T23:39:40.317Z,84.60
2023-03-17T23:42:07.670Z,85.40
2023-03-17T23:44:34.701Z,86.00
2023-03-17T23:47:01.773Z,86.10
2023-03-17T23:49:28.986Z,86.90
2023-03-17T23:51:57.229Z,87.00
2023-03-17T23:54:24.533Z,87.20
2023-03-17T23:56:52.711Z,87.60
2023-03-17T23:59:20.275Z,87.50
